createdAt,value
2018-12-11T00:01:59.095Z,94638.72
2018-12-11T00:04:28.727Z,94637.82
2018-12-11T00:06:58.488Z,94641.59
2018-12-11T00:09:27.944Z,94640.78
2018-12-11T00:11:57.557Z,94641.59
2018-12-11T00:14:27.386Z,94654.48
2018-12-11T00:16:56.759Z,94653.30
2018-12-11T00:19:26.279Z,94655.67
2018-12-11T00:21:56.187Z,94662.41
2018-12-11T00:24:26.024Z,94668.95
2018-12-11T00:26:56.319Z,94664.28
2018-12-11T00:29:26.027Z,94655.18
2018-12-11T00:31:55.858Z,94659.23
2018-12-11T00:34:25.778Z,94666.09
2018-12-11T00:36:55.536Z,94671.36
2018-12-11T00:39:25.396Z,94671.15
2018-12-11T00:41:55.035Z,94672.27
2018-12-11T00:44:24.669Z,94673.94
2018-12-11T00:46:54.286Z,94674.71
2018-12-11T00:49:24.259Z,94670.35
2018-12-11T00:51:53.763Z,94654.59
2018-12-11T00:54:23.408Z,94659.16
2018-12-11T00:56:53.221Z,94662.15
2018-12-11T00:59:22.933Z,94662.81
2018-12-11T01:01:52.443Z,94653.13
2018-12-11T01:04:22.784Z,94656.81
2018-12-11T01:06:52.516Z,94648.48
2018-12-11T01:09:22.116Z,94653.33
2018-12-11T01:11:51.987Z,94647.19
2018-12-11T01:14:21.427Z,94660.16
2018-12-11T01:16:51.037Z,94659.08
2018-12-11T01:19:20.797Z,94656.70
2018-12-11T01:21:50.471Z,94661.06
2018-12-11T01:24:20.179Z,94666.81
2018-12-11T01:26:50.057Z,94664.65
2018-12-11T01:29:19.486Z,94664.16
2018-12-11T01:31:49.076Z,94653.45
2018-12-11T01:34:18.605Z,94649.07
2018-12-11T01:36:48.455Z,94652.55
2018-12-11T01:39:18.413Z,94657.64
2018-12-11T01:41:48.363Z,94653.56
2018-12-11T01:44:18.135Z,94651.27
2018-12-11T01:46:47.799Z,94652.34
2018-12-11T01:49:17.319Z,94647.70
2018-12-11T01:51:46.994Z,94645.90
2018-12-11T01:54:16.551Z,94643.22
2018-12-11T01:56:46.406Z,94648.69
2018-12-11T01:59:15.785Z,94645.59
2018-12-11T02:01:45.658Z,94648.38
2018-12-11T02:04:14.964Z,94639.45
2018-12-11T02:06:44.682Z,94633.91
2018-12-11T02:09:14.350Z,94632.72
2018-12-11T02:11:43.914Z,94629.58
2018-12-11T02:14:13.363Z,94639.27
2018-12-11T02:16:43.035Z,94645.42
2018-12-11T02:19:12.396Z,94644.04
2018-12-11T02:21:42.097Z,94638.70
2018-12-11T02:24:11.182Z,94639.98
2018-12-11T02:26:40.800Z,94639.58
2018-12-11T02:29:10.292Z,94635.11
2018-12-11T02:31:40.091Z,94644.76
2018-12-11T02:34:09.738Z,94637.23
2018-12-11T02:36:39.121Z,94642.38
2018-12-11T02:39:08.955Z,94636.32
2018-12-11T02:41:38.518Z,94643.75
2018-12-11T02:44:08.419Z,94633.84
2018-12-11T02:46:38.536Z,94637.92
2018-12-11T02:49:08.202Z,94623.05
2018-12-11T02:51:38.021Z,94631.58
2018-12-11T02:54:07.872Z,94635.45
2018-12-11T02:56:37.524Z,94640.70
2018-12-11T02:59:07.026Z,94619.56
2018-12-11T03:01:36.668Z,94633.46
2018-12-11T03:04:06.356Z,94629.20
2018-12-11T03:06:35.974Z,94634.34
2018-12-11T03:09:07.335Z,94629.79
2018-12-11T03:11:37.024Z,94631.08
2018-12-11T03:14:06.940Z,94630.18
2018-12-11T03:16:36.768Z,94634.06
2018-12-11T03:19:06.144Z,94629.12
2018-12-11T03:21:35.879Z,94635.16
2018-12-11T03:24:05.845Z,94644.08
2018-12-11T03:26:35.177Z,94638.91
2018-12-11T03:29:05.067Z,94631.56
2018-12-11T03:31:35.034Z,94635.34
2018-12-11T03:34:04.660Z,94636.14
2018-12-11T03:36:34.164Z,94640.41
2018-12-11T03:39:04.149Z,94648.53
2018-12-11T03:41:33.908Z,94654.09
2018-12-11T03:44:03.476Z,94658.37
2018-12-11T03:46:33.314Z,94663.52
2018-12-11T03:49:02.961Z,94659.66
2018-12-11T03:51:32.650Z,94667.38
2018-12-11T03:54:02.509Z,94664.30
2018-12-11T03:56:32.078Z,94673.14
2018-12-11T03:59:01.472Z,94670.34
2018-12-11T04:01:31.117Z,94669.27
2018-12-11T04:04:00.528Z,94667.38
2018-12-11T04:06:30.754Z,94664.31
2018-12-11T04:09:00.481Z,94673.81
2018-12-11T04:11:30.228Z,94680.17
2018-12-11T04:13:59.938Z,94676.58
2018-12-11T04:16:29.384Z,94686.21
2018-12-11T04:18:59.117Z,94680.17
2018-12-11T04:21:28.986Z,94678.97
2018-12-11T04:23:58.660Z,94677.97
2018-12-11T04:26:28.160Z,94691.05
2018-12-11T04:28:58.097Z,94695.61
2018-12-11T04:31:27.547Z,94695.20
2018-12-11T04:33:57.052Z,94696.41
2018-12-11T04:36:27.316Z,94697.80
2018-12-11T04:38:57.057Z,94701.27
2018-12-11T04:41:26.598Z,94708.11
2018-12-11T04:43:56.559Z,94706.99
2018-12-11T04:46:26.141Z,94710.38
2018-12-11T04:48:55.684Z,94713.55
2018-12-11T04:51:25.307Z,94716.61
2018-12-11T04:53:54.993Z,94720.39
2018-12-11T04:56:24.451Z,94720.77
2018-12-11T04:58:53.952Z,94722.85
2018-12-11T05:01:23.823Z,94731.58
2018-12-11T05:03:53.540Z,94725.75
2018-12-11T05:06:23.706Z,94726.55
2018-12-11T05:08:53.313Z,94726.63
2018-12-11T05:11:22.916Z,94723.05
2018-12-11T05:13:52.867Z,94737.62
2018-12-11T05:16:22.453Z,94729.78
2018-12-11T05:18:52.558Z,94733.16
2018-12-11T05:21:22.417Z,94739.59
2018-12-11T05:23:51.855Z,94746.23
2018-12-11T05:26:21.603Z,94746.61
2018-12-11T05:28:51.444Z,94744.55
2018-12-11T05:31:21.092Z,94745.03
2018-12-11T05:33:50.823Z,94747.49
2018-12-11T05:36:20.873Z,94748.69
2018-12-11T05:38:50.563Z,94754.25
2018-12-11T05:41:20.172Z,94768.58
2018-12-11T05:43:50.053Z,94770.59
2018-12-11T05:46:19.694Z,94777.59
2018-12-11T05:48:49.297Z,94782.31
2018-12-11T05:51:19.109Z,94784.61
2018-12-11T05:53:48.591Z,94783.83
2018-12-11T05:56:18.194Z,94789.92
2018-12-11T05:58:47.905Z,94789.83
2018-12-11T06:01:17.448Z,94799.05
2018-12-11T06:03:46.932Z,94793.09
2018-12-11T06:06:16.581Z,94793.89
2018-12-11T06:08:46.383Z,94796.03
2018-12-11T06:11:16.031Z,94798.61
2018-12-11T06:13:45.893Z,94794.57
2018-12-11T06:16:15.636Z,94802.23
2018-12-11T06:18:45.188Z,94797.88
2018-12-11T06:21:14.823Z,94792.50
2018-12-11T06:23:44.429Z,94804.39
2018-12-11T06:26:14.136Z,94804.25
2018-12-11T06:28:43.879Z,94808.39
2018-12-11T06:31:13.427Z,94817.48
2018-12-11T06:33:42.776Z,94811.53
2018-12-11T06:36:12.805Z,94815.52
2018-12-11T06:38:42.182Z,94819.38
2018-12-11T06:41:11.607Z,94819.86
2018-12-11T06:43:41.372Z,94820.06
2018-12-11T06:46:11.105Z,94814.10
2018-12-11T06:48:40.707Z,94828.48
2018-12-11T06:51:11.011Z,94834.52
2018-12-11T06:53:40.517Z,94837.62
2018-12-11T06:56:10.209Z,94841.48
2018-12-11T06:58:40.852Z,94847.25
2018-12-11T07:01:09.477Z,94843.70
2018-12-11T07:03:39.221Z,94844.27
2018-12-11T07:06:09.204Z,94842.83
2018-12-11T07:08:39.022Z,94855.42
2018-12-11T07:11:08.720Z,94847.70
2018-12-11T07:13:38.660Z,94850.08
2018-12-11T07:16:08.325Z,94851.80
2018-12-11T07:18:37.718Z,94853.20
2018-12-11T07:21:07.355Z,94852.45
2018-12-11T07:23:36.911Z,94861.72
2018-12-11T07:26:06.573Z,94865.90
2018-12-11T07:28:36.288Z,94867.67
2018-12-11T07:31:06.102Z,94872.43
2018-12-11T07:33:35.457Z,94868.31
2018-12-11T07:36:05.409Z,94869.39
2018-12-11T07:38:34.872Z,94873.48
2018-12-11T07:41:04.384Z,94883.78
2018-12-11T07:43:33.921Z,94871.80
2018-12-11T07:46:03.510Z,94862.48
2018-12-11T07:48:32.852Z,94865.84
2018-12-11T07:51:03.075Z,94863.97
2018-12-11T07:53:32.980Z,94875.30
2018-12-11T07:56:03.013Z,94885.33
2018-12-11T07:58:32.685Z,94874.30
2018-12-11T08:01:02.540Z,94871.80
2018-12-11T08:03:31.931Z,94877.98
2018-12-11T08:06:01.906Z,94872.19
2018-12-11T08:08:31.542Z,94889.86
2018-12-11T08:11:01.158Z,94878.22
2018-12-11T08:13:31.168Z,94868.36
2018-12-11T08:16:01.780Z,94866.90
2018-12-11T08:18:31.386Z,94859.48
2018-12-11T08:21:01.253Z,94864.27
2018-12-11T08:23:30.751Z,94869.80
2018-12-11T08:26:00.557Z,94883.45
2018-12-11T08:28:30.300Z,94873.22
2018-12-11T08:30:59.927Z,94889.25
2018-12-11T08:33:29.673Z,94875.80
2018-12-11T08:35:59.957Z,94887.34
2018-12-11T08:38:29.485Z,94873.60
2018-12-11T08:40:59.396Z,94834.05
2018-12-11T08:43:29.366Z,94874.80
2018-12-11T08:45:58.967Z,94879.79
2018-12-11T08:48:28.669Z,94894.33
2018-12-11T08:50:58.769Z,94873.66
2018-12-11T08:53:28.424Z,94874.71
2018-12-11T08:55:57.967Z,94878.36
2018-12-11T08:58:27.903Z,94861.64
2018-12-11T09:00:57.612Z,94873.78
2018-12-11T09:03:27.450Z,94874.28
2018-12-11T09:05:57.240Z,94876.73
2018-12-11T09:08:27.575Z,94867.05
2018-12-11T09:10:57.064Z,94860.38
2018-12-11T09:13:26.741Z,94864.20
2018-12-11T09:15:56.402Z,94854.63
2018-12-11T09:18:32.444Z,94857.80
2018-12-11T09:21:01.764Z,94846.53
2018-12-11T09:23:31.684Z,94859.44
2018-12-11T09:26:01.271Z,94857.35
2018-12-11T09:28:30.797Z,94859.91
2018-12-11T09:31:00.248Z,94855.10
2018-12-11T09:33:29.759Z,94845.68
2018-12-11T09:35:59.211Z,94845.55
2018-12-11T09:38:29.018Z,94837.42
2018-12-11T09:40:59.106Z,94845.95
2018-12-11T09:43:28.727Z,94854.23
2018-12-11T09:45:58.147Z,94842.06
2018-12-11T09:48:28.094Z,94851.05
2018-12-11T09:50:57.568Z,94847.87
2018-12-11T09:53:27.023Z,94847.61
2018-12-11T09:55:56.911Z,94834.28
2018-12-11T09:58:26.479Z,94834.92
2018-12-11T10:00:56.183Z,94821.88
2018-12-11T10:03:26.270Z,94827.23
2018-12-11T10:05:55.921Z,94827.56
2018-12-11T10:08:25.776Z,94821.41
2018-12-11T10:10:55.804Z,94814.67
2018-12-11T10:13:25.490Z,94807.64
2018-12-11T10:15:55.059Z,94817.84
2018-12-11T10:18:24.955Z,94814.05
2018-12-11T10:20:54.532Z,94821.02
2018-12-11T10:23:24.287Z,94820.73
2018-12-11T10:25:53.971Z,94817.22
2018-12-11T10:28:23.632Z,94822.20
2018-12-11T10:30:53.455Z,94806.72
2018-12-11T10:33:23.305Z,94809.63
2018-12-11T10:35:52.896Z,94804.53
2018-12-11T10:38:22.432Z,94812.03
2018-12-11T10:40:52.191Z,94803.53
2018-12-11T10:43:21.850Z,94805.47
2018-12-11T10:45:51.835Z,94798.61
2018-12-11T10:48:21.654Z,94807.47
2018-12-11T10:50:51.231Z,94792.27
2018-12-11T10:53:20.896Z,94800.73
2018-12-11T10:55:50.542Z,94795.41
2018-12-11T10:58:20.155Z,94780.85
2018-12-11T11:00:55.355Z,94799.41
2018-12-11T11:03:25.064Z,94801.12
2018-12-11T11:05:54.740Z,94796.06
2018-12-11T11:08:24.682Z,94800.98
2018-12-11T11:10:54.315Z,94807.78
2018-12-11T11:13:23.968Z,94811.15
2018-12-11T11:15:54.071Z,94804.03
2018-12-11T11:18:23.647Z,94793.91
2018-12-11T11:20:53.303Z,94793.38
2018-12-11T11:23:23.033Z,94788.00
2018-12-11T11:25:52.815Z,94788.58
2018-12-11T11:28:22.419Z,94791.26
2018-12-11T11:30:52.398Z,94792.44
2018-12-11T11:33:21.739Z,94796.19
2018-12-11T11:35:51.319Z,94795.10
2018-12-11T11:38:20.801Z,94793.48
2018-12-11T11:40:50.258Z,94796.73
2018-12-11T11:43:19.593Z,94796.81
2018-12-11T11:45:49.206Z,94800.78
2018-12-11T11:48:18.544Z,94801.76
2018-12-11T11:50:48.079Z,94807.87
2018-12-11T11:53:17.555Z,94795.87
2018-12-11T11:55:47.169Z,94792.34
2018-12-11T11:58:16.583Z,94768.63
2018-12-11T12:00:46.789Z,94805.30
2018-12-11T12:03:16.105Z,94801.10
2018-12-11T12:05:45.620Z,94797.11
2018-12-11T12:08:15.087Z,94794.28
2018-12-11T12:10:44.511Z,94809.11
2018-12-11T12:13:13.911Z,94793.13
2018-12-11T12:15:43.640Z,94806.78
2018-12-11T12:18:13.422Z,94802.36
2018-12-11T12:20:42.863Z,94823.70
2018-12-11T12:23:12.628Z,94814.23
2018-12-11T12:25:42.151Z,94810.14
2018-12-11T12:28:11.896Z,94809.66
2018-12-11T12:30:41.799Z,94806.27
2018-12-11T12:33:11.591Z,94814.66
2018-12-11T12:35:41.088Z,94818.59
2018-12-11T12:38:10.863Z,94819.65
2018-12-11T12:40:40.783Z,94813.21
2018-12-11T12:43:10.582Z,94831.53
2018-12-11T12:45:40.356Z,94826.66
2018-12-11T12:48:09.908Z,94831.98
2018-12-11T12:50:39.591Z,94825.91
2018-12-11T12:53:10.257Z,94836.55
2018-12-11T12:55:39.843Z,94842.18
2018-12-11T12:58:09.347Z,94836.81
2018-12-11T13:00:39.304Z,94843.05
2018-12-11T13:03:08.931Z,94844.45
2018-12-11T13:05:38.364Z,94844.11
2018-12-11T13:08:08.077Z,94839.49
2018-12-11T13:10:37.490Z,94849.57
2018-12-11T13:13:07.305Z,94853.20
2018-12-11T13:15:37.235Z,94859.50
2018-12-11T13:18:06.941Z,94851.41
2018-12-11T13:20:36.651Z,94859.25
2018-12-11T13:23:06.583Z,94865.88
2018-12-11T13:25:36.042Z,94866.52
2018-12-11T13:28:05.740Z,94873.25
2018-12-11T13:30:35.894Z,94871.11
2018-12-11T13:33:08.235Z,94879.20
2018-12-11T13:35:37.894Z,94867.79
2018-12-11T13:38:07.480Z,94877.19
2018-12-11T13:40:37.169Z,94884.78
2018-12-11T13:43:07.440Z,94885.12
2018-12-11T13:45:36.871Z,94884.39
2018-12-11T13:48:06.616Z,94886.52
2018-12-11T13:50:37.365Z,94874.73
2018-12-11T13:53:07.104Z,94881.35
2018-12-11T13:55:36.845Z,94893.13
2018-12-11T13:58:10.617Z,94887.03
2018-12-11T14:00:41.220Z,94887.27
2018-12-11T14:03:11.275Z,94883.29
2018-12-11T14:05:45.066Z,94892.04
2018-12-11T14:08:20.302Z,94885.09
2018-12-11T14:10:49.970Z,94885.89
2018-12-11T14:13:19.699Z,94894.16
2018-12-11T14:15:49.410Z,94889.77
2018-12-11T14:18:18.658Z,94883.91
2018-12-11T14:20:48.329Z,94896.03
2018-12-11T14:23:18.401Z,94896.33
2018-12-11T14:25:48.086Z,94895.44
2018-12-11T14:28:17.661Z,94898.91
2018-12-11T14:30:47.199Z,94903.58
2018-12-11T14:33:16.629Z,94907.26
2018-12-11T14:35:45.970Z,94914.20
2018-12-11T14:38:15.880Z,94921.26
2018-12-11T14:40:45.289Z,94916.28
2018-12-11T14:43:14.731Z,94911.02
2018-12-11T14:45:44.135Z,94912.13
2018-12-11T14:48:13.601Z,94912.11
2018-12-11T14:50:43.169Z,94916.67
2018-12-11T14:53:12.960Z,94915.09
2018-12-11T14:55:42.318Z,94919.77
2018-12-11T14:58:11.751Z,94926.42
2018-12-11T15:00:41.693Z,94926.99
2018-12-11T15:03:11.212Z,94919.03
2018-12-11T15:05:40.928Z,94919.92
2018-12-11T15:08:11.021Z,94923.59
2018-12-11T15:10:40.763Z,94923.22
2018-12-11T15:13:10.211Z,94922.02
2018-12-11T15:15:40.219Z,94928.34
2018-12-11T15:18:09.581Z,94926.17
2018-12-11T15:20:39.135Z,94928.44
2018-12-11T15:23:09.274Z,94931.41
2018-12-11T15:25:38.976Z,94925.77
2018-12-11T15:28:08.687Z,94929.92
2018-12-11T15:30:38.658Z,94922.59
2018-12-11T15:33:08.364Z,94926.13
2018-12-11T15:35:37.950Z,94926.34
2018-12-11T15:38:07.921Z,94934.36
2018-12-11T15:40:37.607Z,94934.16
2018-12-11T15:43:07.205Z,94932.73
2018-12-11T15:45:37.174Z,94939.79
2018-12-11T15:48:07.983Z,94943.66
2018-12-11T15:50:37.708Z,94946.84
2018-12-11T15:53:07.439Z,94946.31
2018-12-11T15:55:37.061Z,94948.69
2018-12-11T15:58:06.840Z,94950.09
2018-12-11T16:17:59.195Z,94959.88
2018-12-11T16:20:28.929Z,94963.27
2018-12-11T16:22:59.093Z,94969.38
2018-12-11T16:25:28.970Z,94975.30
2018-12-11T16:27:58.653Z,94972.16
2018-12-11T16:30:28.994Z,94981.92
2018-12-11T16:32:58.665Z,94972.98
2018-12-11T16:35:28.186Z,94975.12
2018-12-11T16:37:57.939Z,94971.69
2018-12-11T16:40:29.087Z,94970.19
2018-12-11T16:42:58.777Z,94976.02
2018-12-11T16:45:28.380Z,94973.73
2018-12-11T16:47:58.304Z,94971.40
2018-12-11T16:50:28.019Z,94977.84
2018-12-11T16:52:57.818Z,94979.20
2018-12-11T16:55:28.652Z,94983.43
2018-12-11T16:57:58.603Z,94986.39
2018-12-11T17:00:28.448Z,94990.45
2018-12-11T17:02:58.381Z,94998.74
2018-12-11T17:05:28.603Z,94992.30
2018-12-11T17:07:58.134Z,95003.19
2018-12-11T17:10:29.562Z,95000.42
2018-12-11T17:12:59.892Z,95005.34
2018-12-11T17:15:29.936Z,95006.77
2018-12-11T17:18:00.263Z,94996.40
2018-12-11T17:37:52.337Z,95000.69
2018-12-11T17:40:22.915Z,94997.75
2018-12-11T17:42:52.711Z,95002.55
2018-12-11T17:45:22.530Z,95001.59
2018-12-11T17:47:52.558Z,95002.81
2018-12-11T17:50:23.935Z,95004.48
2018-12-11T17:52:53.763Z,95006.06
2018-12-11T17:55:23.329Z,95018.94
2018-12-11T17:57:53.117Z,95012.50
2018-12-11T18:23:33.932Z,95042.27
2018-12-11T18:26:03.771Z,95047.09
2018-12-11T18:45:56.130Z,95044.13
2018-12-11T18:48:25.780Z,95047.31
2018-12-11T18:50:55.396Z,95046.25
2018-12-11T18:53:26.497Z,95050.49
2018-12-11T18:55:57.156Z,95050.49
2018-12-11T18:58:27.579Z,95048.97
2018-12-11T19:00:57.006Z,95042.21
2018-12-11T19:03:27.432Z,95049.58
2018-12-11T19:05:58.049Z,95049.82
2018-12-11T19:08:27.762Z,95054.55
2018-12-11T19:10:57.500Z,95050.93
2018-12-11T19:13:27.896Z,95051.79
2018-12-11T19:15:58.443Z,95051.22
2018-12-11T19:18:28.117Z,95045.28
2018-12-11T19:38:20.691Z,95039.28
2018-12-11T19:40:50.301Z,95046.03
2018-12-11T19:43:19.810Z,95041.61
2018-12-11T19:45:49.659Z,95039.41
2018-12-11T19:48:19.337Z,95039.81
2018-12-11T20:08:11.479Z,95051.95
2018-12-11T20:10:41.166Z,95061.95
2018-12-11T20:13:10.913Z,95057.30
2018-12-11T20:33:23.478Z,95060.95
2018-12-11T20:35:52.323Z,95072.20
2018-12-11T20:55:44.658Z,95074.16
2018-12-11T20:58:13.989Z,95073.24
2018-12-11T21:00:43.708Z,95077.29
2018-12-11T21:03:13.055Z,95077.34
2018-12-11T21:05:42.703Z,95081.88
2018-12-11T21:08:12.204Z,95073.15
2018-12-11T21:10:42.059Z,95080.82
2018-12-11T21:13:11.443Z,95074.91
2018-12-11T21:15:41.090Z,95080.09
2018-12-11T21:18:10.494Z,95080.71
2018-12-11T21:20:40.115Z,95089.09
2018-12-11T21:23:09.776Z,95088.72
2018-12-11T21:25:39.607Z,95087.25
2018-12-11T21:28:09.251Z,95085.63
2018-12-11T21:30:38.728Z,95083.06
2018-12-11T21:33:08.599Z,95083.31
2018-12-11T21:35:38.116Z,95079.03
2018-12-11T21:38:07.734Z,95075.73
2018-12-11T21:40:37.359Z,95073.06
2018-12-11T21:43:06.962Z,95078.83
2018-12-11T21:45:36.458Z,95079.11
2018-12-11T21:48:06.352Z,95073.53
2018-12-11T21:50:36.025Z,95074.83
2018-12-11T22:24:55.769Z,95080.59
2018-12-11T22:27:26.488Z,95077.53
2018-12-11T22:29:56.216Z,95079.54
2018-12-11T22:32:25.651Z,95070.66
2018-12-11T22:34:55.303Z,95069.06
2018-12-11T22:37:24.943Z,95072.48
2018-12-11T22:39:54.449Z,95074.28
2018-12-11T22:42:24.198Z,95077.66
2018-12-11T23:02:15.480Z,95069.61
2018-12-11T23:04:45.479Z,95065.83
2018-12-11T23:07:15.022Z,95070.98
2018-12-11T23:09:45.351Z,95063.54
2018-12-11T23:12:15.174Z,95063.84
2018-12-11T23:14:44.859Z,95055.34
2018-12-11T23:17:14.179Z,95018.08
2018-12-11T23:19:44.116Z,95052.52
2018-12-11T23:22:13.478Z,95045.33
2018-12-11T23:24:42.935Z,95050.22
2018-12-11T23:27:12.663Z,95063.84
2018-12-11T23:29:42.414Z,95061.87
2018-12-11T23:32:11.904Z,95069.30
2018-12-11T23:34:41.819Z,95068.58
2018-12-11T23:37:11.778Z,95058.80
2018-12-11T23:57:03.551Z,95070.58
2018-12-11T23:59:33.019Z,95072.17
